Accueil
METAR-TAF:

METAR-TAF

Aéroports :

Rouen, France

Aéroport Rouen Vallée de Seine

latitude: 49-23N, longitude: 001-11E, altitude: 157 m

Observation

Le bulletin a été fait il y a 11 minutes, à 18:30 UTC
Vent 6 kt de nord-est
Température 15°C
Humidité 88%
Pression 1016 hPa
Visibilité: 9000 m

METAR: LFOP 171830Z AUTO 04006KT 9000 NSC 15/13 Q1016 NOSIG

Heure: 20:41 (18:41 UTC)

Prévision

Le bulletin a été fait il y a 1 heure et 41 minutes, à 17:00 UTC
Prévision valable du 17 à 18 UTC au 18 à 18 UTC
Vent 5 kt de est/nord-est
Visibilité 10 km ou plus
Nuages fragmentés à une hauteur de 4000 ft
Evoluant progressivement
du 18 à 00 UTC au 18 à 03 UTC
Visibilité: 4000 m
brume
Evoluant progressivement
du 18 à 08 UTC au 18 à 10 UTC
Visibilité 10 km ou plus

TAF: LFOP 171700Z 1718/1818 06005KT 9999 BKN040 BECMG 1800/1803 4000 BR BECMG 1808/1810 9999 NSW

Observations et prévisions météorologiques de plus de 4000 aéroports (messages METAR et TAF).

Les stations disponibles sont représentées par des disques jaunes et rouges sur la carte.

Passer la souris dessus pour voir le nom de la station.

Cliquer dessus pour voir les observations et prévisions météorologiques.

Pour changer de carte: cliquez sur les boutons verts avec une croix noire pour zoomer, sur le bouton vert avec un tiret pour effectuer un zoom arrière, ou sur les flèches vertes pour les cartes adjacentes.


METAR-TAF: